Barstow Daggett Airport
KDAG : now visible

Airfield :











YOU CAN JOIN US ON...

 
LOGIN :

Register | Disclaimer

   EN    FR    IT 

 









Legend :    VFR   Marginal VFR   IFR   Intensive IFR   Very Intensive IFR
Visi :
Ceiling :
>= 8 km
>= 3000ft
5 to 8 km
1000 to 3000 ft
1500m to 5 km
500 to 1000 ft
800 to 1500m
200 to 500 ft
< 800m
< 200 ft
Symbols :   Thunderstorms  Fog  Heavy snow  Heavy precipitations  Wind > 20 kt






- Airport Elevation : 1930 ft


KDAG - Barstow Daggett

CURRENT METAR :
  • 042350Z AUTO 28007G18KT 10SM CLR 39/03 A2988 RMK AO2 SLP090 T03940033 10406 20339 56021

EXPIRED METARs :
  • 042250Z AUTO 30014G20KT 10SM CLR 39/05 A2989 RMK AO2 SLP093 T03940050
  • 042150Z AUTO 30009G22KT 10SM CLR 38/06 A2992 RMK AO2 SLP104 T03830056

TAF KDAG
Valid from the 05 at 00:00 until the 06 at 00:00 UTC


042320Z 0500/0524 29014G23KT P6SM SKC
FM050300 27013KT P6SM SKC
KZLA FIR / North America



MET'MAP, your aeronautical weather chart ! - Copyright ORBIFLY December 2007 - Disclaimer

ORBIFLY MET'MAP TEAM :

Programming & Development : Alexandra Zaïnal
Concept & original design : Baudouin d'Aumeries
Assistance for programming : Marc-Olivier Méhu
Technical & hardware support : Manuel Goepfert

Contact : metmap@orbifly.com




SOURCES & CREDITS :

   NOAA       Earth
Advisory